Main page
METAR-TAF:

METAR-TAF

Airports :

Dammam, Saudi Arabia

King Fahd International Airport

latitude: 26-28N, longitude: 049-47E, elevation: 22 m

Current weather observation

The report was made 52 minutes ago, at 04:00 UTC
Wind 4 kt from the West
Temperature 24°C
Humidity 74%
Pressure 1011 hPa
Visibility: 8000 m

METAR: OEDF 220400Z 28004KT 8000 NSC 24/19 Q1011 NOSIG

Time: 07:52 (04:52 UTC)

Forecast

The report was made 8 hours and 52 minutes ago, at 20:00 UTC
Forecast valid from 22 at 00 UTC to 23 at 06 UTC
Wind 3 kt from variable directions
Visibility: 8000 m
Probability 40% :
Temporary
from 22 at 00 UTC to 22 at 05 UTC
Visibility: 5000 m
Becoming
from 22 at 05 UTC to 22 at 07 UTC
Wind 12 kt from the North

TAF: OEDF 212000Z 2200/2306 VRB03KT 8000 NSC PROB40 TEMPO 2200/2205 5000 HZ/BR BECMG 2205/2207 01012KT

Weather observations and forecasts of more than 4000 airports (METAR and TAF reports).

The available stations are represented by yellow and red dots on the map.

Hover mouse over dot to see the name of the station.

Then click to see weather observations and forecasts.

To change the map : click on the green buttons with a black cross to zoom in, on the green button with a dash to zoom out, or on the green arrows for adjacent maps.


METAR-TAF: